Time;durP1;ratioP1;P1;durP2;ratioP2;P2;SDS_P1;SDS_P2;PMS_P1;PMS_P2;Temp;Humidity;BMP_temperature;BMP_pressure;BME280_temperature;BME280_humidity;BME280_pressure;Samples;Min_cycle;Max_cycle;Signal;HPM_P1;HPM_P2
2022/04/23 00:02:23;;;;;;;26.00;19.52;;;;;;;9.70;77.36;100414.25;5074401;28;20467;-73
2022/04/23 00:04:48;;;;;;;27.77;19.40;;;;;;;9.65;77.68;100416.16;5075017;28;20063;-73
2022/04/23 00:07:14;;;;;;;23.98;19.38;;;;;;;9.62;78.12;100414.47;5084673;28;20070;-73
2022/04/23 00:09:39;;;;;;;25.70;18.90;;;;;;;9.60;78.28;100413.66;5074181;28;20031;-73
2022/04/23 00:12:05;;;;;;;25.38;19.08;;;;;;;9.57;78.20;100404.16;5074232;28;20032;-72
2022/04/23 00:14:30;;;;;;;25.65;18.92;;;;;;;9.56;78.65;100407.66;5072747;28;20780;-73
2022/04/23 00:16:57;;;;;;;25.27;19.20;;;;;;;9.60;78.41;100414.50;5074713;28;20551;-73
2022/04/23 00:19:23;;;;;;;25.33;19.73;;;;;;;9.55;78.99;100411.19;5074766;28;20029;-73
2022/04/23 00:21:48;;;;;;;25.65;19.15;;;;;;;9.53;79.09;100417.31;5074063;28;20419;-73
2022/04/23 00:24:13;;;;;;;26.77;19.55;;;;;;;9.50;79.19;100420.84;5073610;28;20040;-73
2022/04/23 00:26:42;;;;;;;23.52;18.58;;;;;;;9.46;79.21;100408.81;5073867;28;20549;-73
2022/04/23 00:29:08;;;;;;;25.38;19.60;;;;;;;9.46;79.08;100414.00;5073826;28;20059;-73
2022/04/23 00:31:34;;;;;;;24.20;19.60;;;;;;;9.44;79.48;100412.34;5074328;28;20476;-72
2022/04/23 00:34:00;;;;;;;26.13;19.30;;;;;;;9.36;79.76;100412.53;5074200;28;20017;-73
2022/04/23 00:36:26;;;;;;;29.52;20.60;;;;;;;9.36;79.80;100408.19;5073974;28;20468;-73
2022/04/23 00:38:53;;;;;;;26.30;20.13;;;;;;;9.37;80.33;100411.63;5074147;28;20043;-73
2022/04/23 00:44:03;;;;;;;26.25;19.50;;;;;;;9.28;80.49;100401.47;5073449;28;20487;-73
2022/04/23 00:46:29;;;;;;;23.85;19.73;;;;;;;9.26;81.21;100408.47;5094961;28;20024;-72
2022/04/23 00:48:54;;;;;;;26.10;19.58;;;;;;;9.22;81.50;100399.00;5090033;28;20506;-73
2022/04/23 00:51:19;;;;;;;24.98;19.98;;;;;;;9.24;81.25;100405.88;5084178;28;20047;-72
2022/04/23 00:53:47;;;;;;;29.80;19.90;;;;;;;9.19;81.52;100402.56;5083683;28;20373;-72
2022/04/23 00:56:13;;;;;;;27.33;20.80;;;;;;;9.16;81.67;100401.78;5094186;28;20020;-73
2022/04/23 00:58:39;;;;;;;27.67;20.45;;;;;;;9.17;81.74;100401.72;5093385;28;20024;-72
2022/04/23 01:01:05;;;;;;;28.90;21.13;;;;;;;9.16;82.12;100407.00;5094251;28;20110;-73
2022/04/23 01:03:30;;;;;;;25.73;20.35;;;;;;;9.16;81.62;100418.25;5088732;28;20026;-73
2022/04/23 01:05:57;;;;;;;27.90;21.17;;;;;;;9.09;81.48;100406.25;5080428;28;20056;-73
2022/04/23 01:08:22;;;;;;;23.67;20.35;;;;;;;9.07;82.03;100406.31;5094090;28;20024;-73
2022/04/23 01:10:48;;;;;;;26.33;20.48;;;;;;;9.06;82.44;100407.22;5093183;28;20020;-72
2022/04/23 01:13:14;;;;;;;25.83;20.88;;;;;;;9.03;82.55;100407.28;5077346;28;20036;-72
2022/04/23 01:15:43;;;;;;;27.40;20.63;;;;;;;9.01;82.59;100414.25;5089908;28;20047;-72
2022/04/23 01:18:08;;;;;;;26.70;22.35;;;;;;;8.98;83.45;100409.13;5088180;28;20029;-72
2022/04/23 01:20:34;;;;;;;30.40;20.90;;;;;;;8.96;82.43;100404.84;5073442;28;20033;-73
2022/04/23 01:23:00;;;;;;;25.77;20.30;;;;;;;8.99;82.90;100405.66;5074874;28;20056;-72
2022/04/23 01:25:26;;;;;;;30.05;22.20;;;;;;;8.96;83.34;100410.91;5072203;28;20029;-72
2022/04/23 01:27:52;;;;;;;32.28;22.08;;;;;;;8.87;83.52;100403.34;5073170;28;20032;-73
2022/04/23 01:30:18;;;;;;;26.42;21.00;;;;;;;8.92;83.59;100417.06;5073579;28;20070;-72
2022/04/23 01:32:43;;;;;;;27.13;21.00;;;;;;;8.90;83.63;100409.31;5072588;28;20489;-72
2022/04/23 01:35:09;;;;;;;28.70;21.23;;;;;;;8.87;84.14;100414.56;5072994;28;20039;-72
2022/04/23 01:37:34;;;;;;;27.45;22.08;;;;;;;8.85;83.89;100407.69;5085519;28;20050;-72
2022/04/23 01:40:00;;;;;;;31.15;21.60;;;;;;;8.82;83.91;100418.16;5089761;28;20365;-73
2022/04/23 01:42:25;;;;;;;27.85;21.10;;;;;;;8.81;83.70;100411.25;5093400;28;20032;-73
2022/04/23 01:44:51;;;;;;;29.63;22.92;;;;;;;8.70;84.57;100408.03;5093520;28;20043;-73
2022/04/23 01:47:17;;;;;;;27.63;21.75;;;;;;;8.75;84.58;100416.59;5091219;28;20107;-73
2022/04/23 01:49:44;;;;;;;29.60;22.42;;;;;;;8.67;85.10;100409.00;5093331;28;20102;-72
2022/04/23 01:52:10;;;;;;;28.30;22.27;;;;;;;8.70;85.15;100415.84;5089163;28;21017;-73
2022/04/23 01:54:35;;;;;;;30.05;23.48;;;;;;;8.64;85.49;100419.44;5092955;28;20110;-72
2022/04/23 01:57:01;;;;;;;28.10;23.67;;;;;;;8.67;85.42;100419.38;5090383;28;20028;-73
2022/04/23 01:59:26;;;;;;;33.08;23.30;;;;;;;8.68;85.98;100416.75;5093269;28;20036;-73
2022/04/23 02:01:54;;;;;;;30.52;23.17;;;;;;;8.72;85.59;100419.28;5092361;28;20020;-73
2022/04/23 02:04:19;;;;;;;30.92;23.35;;;;;;;8.67;85.33;100421.97;5092721;28;20405;-73
2022/04/23 02:06:45;;;;;;;33.03;23.50;;;;;;;8.77;85.36;100422.63;5091122;28;20097;-73
2022/04/23 02:09:11;;;;;;;28.95;23.80;;;;;;;8.70;85.72;100418.44;5092500;28;20063;-72
2022/04/23 02:11:36;;;;;;;30.55;24.25;;;;;;;8.70;85.85;100419.31;5083189;28;20070;-73
2022/04/23 02:14:02;;;;;;;32.13;25.15;;;;;;;8.67;85.97;100420.22;5081671;28;20154;-73
2022/04/23 02:16:28;;;;;;;36.20;25.85;;;;;;;8.64;86.42;100420.31;5087836;28;20032;-73
2022/04/23 02:18:54;;;;;;;37.30;25.60;;;;;;;8.63;86.33;100413.41;5071632;28;20028;-73
2022/04/23 02:21:19;;;;;;;34.97;25.42;;;;;;;8.67;86.22;100409.84;5071882;28;20028;-73
2022/04/23 02:23:45;;;;;;;37.75;24.20;;;;;;;8.66;86.50;100409.84;5073119;28;20029;-73
2022/04/23 02:26:10;;;;;;;34.53;25.90;;;;;;;8.64;86.33;100412.50;5091519;28;20028;-72
2022/04/23 02:28:38;;;;;;;32.75;26.15;;;;;;;8.65;86.59;100416.81;5091968;28;20081;-72
2022/04/23 02:31:04;;;;;;;36.92;26.65;;;;;;;8.57;86.76;100413.53;5090695;28;20028;-73
2022/04/23 02:33:29;;;;;;;34.85;25.27;;;;;;;8.53;87.16;100417.06;5072387;28;20034;-72
2022/04/23 02:35:55;;;;;;;37.47;27.52;;;;;;;8.50;87.59;100411.97;5087933;28;20024;-73
2022/04/23 02:38:20;;;;;;;35.85;26.27;;;;;;;8.51;87.31;100411.06;5081339;28;20038;-73
2022/04/23 02:40:45;;;;;;;36.08;27.48;;;;;;;8.49;87.80;100410.22;5072183;28;20027;-72
2022/04/23 02:43:14;;;;;;;36.38;26.60;;;;;;;8.53;87.75;100405.81;5071366;28;20043;-73
2022/04/23 02:45:39;;;;;;;36.95;25.33;;;;;;;8.56;87.92;100414.41;5083372;28;20039;-72
2022/04/23 02:48:05;;;;;;;36.13;28.08;;;;;;;8.50;87.61;100409.38;5092019;28;20024;-72
2022/04/23 02:50:37;;;;;;;36.97;28.30;;;;;;;8.51;87.70;100411.06;5091083;28;20081;-73
2022/04/23 02:53:04;;;;;;;36.70;28.17;;;;;;;8.53;87.79;100409.28;5073983;28;20023;-72
2022/04/23 02:55:33;;;;;;;34.88;27.77;;;;;;;8.46;88.09;100406.84;5091332;28;20150;-72
2022/04/23 02:58:04;;;;;;;37.90;27.75;;;;;;;8.41;88.39;100410.41;5091616;28;20047;-72
2022/04/23 03:00:30;;;;;;;37.30;28.58;;;;;;;8.41;88.46;100402.63;5092158;28;20113;-73
2022/04/23 03:02:55;;;;;;;37.67;29.05;;;;;;;8.39;88.97;100390.53;5092186;28;20456;-72
2022/04/23 03:05:21;;;;;;;38.55;27.92;;;;;;;8.42;88.96;100400.88;5084100;28;21839;-72
2022/04/23 03:07:48;;;;;;;37.30;29.23;;;;;;;8.40;89.07;100389.66;5091644;28;20379;-72
2022/04/23 03:10:15;;;;;;;41.83;29.50;;;;;;;8.44;89.38;100391.31;5091229;28;20387;-73
2022/04/23 03:12:41;;;;;;;42.03;30.30;;;;;;;8.43;89.24;100403.41;5086558;28;20043;-73
2022/04/23 03:15:09;;;;;;;36.22;28.65;;;;;;;8.46;89.43;100391.25;5090185;28;20028;-72
2022/04/23 03:17:36;;;;;;;43.00;29.50;;;;;;;8.42;89.26;100406.06;5090883;28;20021;-73
2022/04/23 03:20:02;;;;;;;38.78;30.50;;;;;;;8.41;89.75;100401.75;5091482;28;20372;-73
2022/04/23 03:22:28;;;;;;;41.33;29.85;;;;;;;8.34;89.83;100400.16;5091825;28;20031;-72
2022/04/23 03:24:53;;;;;;;43.08;31.15;;;;;;;8.40;90.03;100402.63;5090704;28;20024;-73
2022/04/23 03:27:18;;;;;;;40.25;30.92;;;;;;;8.37;89.89;100394.88;5082140;28;20055;-73
2022/04/23 03:29:44;;;;;;;40.42;28.27;;;;;;;8.33;90.21;100406.22;5091630;28;20036;-72
2022/04/23 03:32:10;;;;;;;44.08;30.70;;;;;;;8.32;90.24;100410.56;5091005;28;20025;-73
2022/04/23 03:34:35;;;;;;;45.30;30.67;;;;;;;8.29;90.48;100401.97;5091325;28;20058;-72
2022/04/23 03:37:00;;;;;;;42.63;31.02;;;;;;;8.29;90.54;100396.78;5076837;28;20028;-72
2022/04/23 03:39:26;;;;;;;43.67;30.90;;;;;;;8.31;90.50;100400.22;5076416;28;20420;-73
2022/04/23 03:41:51;;;;;;;44.47;29.63;;;;;;;8.31;90.66;100390.69;5091492;28;20020;-73
2022/04/23 03:44:16;;;;;;;42.78;31.10;;;;;;;8.26;90.67;100389.91;5091575;28;20070;-73
2022/04/23 03:46:42;;;;;;;42.60;31.95;;;;;;;8.21;91.04;100390.03;5090838;28;20555;-73
2022/04/23 03:49:10;;;;;;;43.25;32.42;;;;;;;8.17;91.48;100390.97;5090348;28;20027;-73
2022/04/23 03:51:35;;;;;;;44.55;32.22;;;;;;;8.16;91.03;100397.03;5090366;28;20040;-73
2022/04/23 03:54:01;;;;;;;44.05;32.40;;;;;;;8.11;91.18;100391.09;5087467;28;20391;-73
2022/04/23 03:56:26;;;;;;;43.30;32.47;;;;;;;8.09;91.96;100390.28;5091703;28;20020;-73
2022/04/23 03:58:55;;;;;;;45.72;32.63;;;;;;;8.10;92.14;100391.97;5091326;28;20464;-73
2022/04/23 04:01:20;;;;;;;44.15;33.75;;;;;;;8.06;92.07;100385.13;5088907;28;20039;-73
2022/04/23 04:03:45;;;;;;;46.10;32.90;;;;;;;8.01;92.24;100379.19;5091245;28;20033;-73
2022/04/23 04:06:11;;;;;;;43.70;32.22;;;;;;;8.03;92.62;100380.00;5089976;28;20468;-73
2022/04/23 04:08:36;;;;;;;47.15;32.25;;;;;;;8.05;92.46;100382.59;5090880;28;20062;-73
2022/04/23 04:11:01;;;;;;;48.85;33.78;;;;;;;8.10;92.03;100383.34;5090093;28;20032;-73
2022/04/23 04:13:27;;;;;;;45.35;33.08;;;;;;;8.02;92.25;100372.25;5082494;28;20475;-73
2022/04/23 04:15:52;;;;;;;50.47;33.35;;;;;;;8.06;92.46;100374.75;5091050;28;20028;-72
2022/04/23 04:18:18;;;;;;;47.80;34.95;;;;;;;8.03;92.95;100368.78;5091115;28;20484;-72
2022/04/23 04:20:49;;;;;;;47.22;32.83;;;;;;;8.04;92.66;100373.91;5088634;28;20036;-72
2022/04/23 04:23:15;;;;;;;43.80;31.85;;;;;;;8.03;93.04;100377.41;5074234;28;20043;-73
2022/04/23 04:25:41;;;;;;;44.95;33.10;;;;;;;8.06;93.03;100379.09;5071078;28;20024;-72
2022/04/23 04:28:09;;;;;;;47.95;32.90;;;;;;;8.02;93.59;100364.47;5072334;28;20380;-72
2022/04/23 04:33:20;;;;;;;44.72;32.10;;;;;;;8.07;92.73;100373.84;5085713;28;20071;-72
2022/04/23 04:35:45;;;;;;;45.78;33.33;;;;;;;8.06;92.83;100369.56;5094076;28;20031;-72
2022/04/23 04:38:10;;;;;;;48.15;33.35;;;;;;;7.99;93.76;100365.38;5094662;28;20024;-73
2022/04/23 04:40:36;;;;;;;46.15;32.63;;;;;;;8.01;93.14;100367.94;5093415;28;20027;-73
2022/04/23 04:43:01;;;;;;;44.88;32.17;;;;;;;8.03;93.18;100376.56;5093990;28;20024;-73
2022/04/23 04:45:26;;;;;;;50.38;33.92;;;;;;;8.01;93.43;100371.41;5094659;28;20435;-72
2022/04/23 04:47:55;;;;;;;46.67;32.80;;;;;;;8.04;93.41;100381.72;5093154;28;20077;-72
2022/04/23 04:50:20;;;;;;;48.40;33.58;;;;;;;8.08;93.65;100378.19;5091193;28;20031;-72
2022/04/23 04:52:46;;;;;;;47.05;33.83;;;;;;;8.11;93.20;100382.44;5092809;28;20048;-72
2022/04/23 04:55:11;;;;;;;49.65;33.88;;;;;;;8.12;93.99;100389.34;5094044;28;20032;-72
2022/04/23 04:57:37;;;;;;;46.92;32.50;;;;;;;8.11;93.76;100388.50;5093570;28;20032;-72
2022/04/23 05:00:03;;;;;;;50.50;34.10;;;;;;;8.12;93.64;100390.22;5092750;28;20012;-72
2022/04/23 05:02:28;;;;;;;46.50;32.92;;;;;;;8.13;93.71;100384.13;5073376;28;20029;-72
2022/04/23 05:04:54;;;;;;;49.03;33.78;;;;;;;8.20;93.21;100387.44;5073168;28;20047;-72
2022/04/23 05:07:19;;;;;;;45.83;32.33;;;;;;;8.23;93.05;100391.72;5074011;28;20531;-72
2022/04/23 05:09:44;;;;;;;44.53;32.25;;;;;;;8.26;93.71;100399.44;5073121;28;20024;-72
2022/04/23 05:12:13;;;;;;;45.97;33.17;;;;;;;8.28;93.97;100400.28;5085149;28;20074;-72
2022/04/23 05:14:38;;;;;;;48.10;32.13;;;;;;;8.31;93.64;100389.84;5091844;28;20028;-72
2022/04/23 05:17:03;;;;;;;48.95;33.63;;;;;;;8.33;93.90;100383.69;5093261;28;20414;-72
2022/04/23 05:19:29;;;;;;;41.40;29.40;;;;;;;8.39;92.95;100377.56;5094006;28;20031;-72
2022/04/23 05:21:54;;;;;;;45.53;32.40;;;;;;;8.37;93.22;100376.69;5092120;28;20047;-72
2022/04/23 05:24:19;;;;;;;45.10;31.02;;;;;;;8.44;93.31;100383.53;5093295;28;20051;-73
2022/04/23 05:26:44;;;;;;;46.03;32.78;;;;;;;8.48;93.17;100390.34;5090283;28;20036;-72
2022/04/23 05:29:10;;;;;;;44.47;31.67;;;;;;;8.53;93.07;100387.63;5091521;28;20032;-72
2022/04/23 05:31:38;;;;;;;48.28;34.13;;;;;;;8.55;93.08;100388.47;5084570;28;20380;-72
2022/04/23 05:34:04;;;;;;;43.40;30.75;;;;;;;8.62;92.59;100384.84;5090653;28;20032;-72
2022/04/23 05:36:29;;;;;;;45.75;31.98;;;;;;;8.65;92.50;100382.16;5093804;28;20048;-72
2022/04/23 05:38:55;;;;;;;47.28;30.80;;;;;;;8.74;91.99;100384.56;5091971;28;20066;-72
2022/04/23 05:41:20;;;;;;;44.90;31.48;;;;;;;8.76;92.07;100376.72;5087642;28;20028;-72
2022/04/23 05:43:54;;;;;;;42.22;31.88;;;;;;;8.80;92.02;100378.38;5084427;28;20028;-72
2022/04/23 05:46:19;;;;;;;;;;;;;;;8.86;91.13;100386.88;5085338;28;20023;-73
2022/04/23 05:48:45;;;;;;;43.50;30.37;;;;;;;8.89;91.08;100388.53;5073289;28;19912;-72
2022/04/23 05:51:10;;;;;;;43.50;30.83;;;;;;;8.97;91.29;100385.78;5072034;28;20695;-72
2022/04/23 05:53:35;;;;;;;43.85;32.33;;;;;;;9.02;90.86;100397.75;5072245;28;20082;-72
2022/04/23 05:56:00;;;;;;;43.15;31.00;;;;;;;9.09;90.33;100380.25;5073104;28;20046;-72
2022/04/23 05:58:26;;;;;;;42.33;32.08;;;;;;;9.10;90.70;100390.63;5073700;28;20063;-73
2022/04/23 06:00:51;;;;;;;43.22;31.95;;;;;;;9.17;89.95;100382.69;5076357;28;20024;-72
2022/04/23 06:03:17;;;;;;;41.35;30.23;;;;;;;9.21;90.10;100373.91;5075813;28;20052;-73
2022/04/23 06:05:42;;;;;;;42.00;30.63;;;;;;;9.28;89.88;100385.84;5089996;28;20384;-72
2022/04/23 06:08:08;;;;;;;41.60;31.40;;;;;;;9.30;89.77;100379.72;5076648;28;20039;-73
2022/04/23 06:10:34;;;;;;;43.33;31.65;;;;;;;9.40;88.98;100379.50;5081796;28;20032;-73
2022/04/23 06:12:59;;;;;;;42.45;30.67;;;;;;;9.46;88.61;100395.78;5076018;28;20111;-74
2022/04/23 06:15:24;;;;;;;39.67;29.50;;;;;;;9.53;87.68;100381.72;5087025;28;20118;-73
2022/04/23 06:17:50;;;;;;;38.60;28.67;;;;;;;9.59;87.73;100378.97;5084665;28;20066;-73
2022/04/23 06:20:15;;;;;;;40.25;30.60;;;;;;;9.61;87.82;100376.31;5077027;28;20510;-73
2022/04/23 06:22:40;;;;;;;40.92;29.75;;;;;;;9.69;87.52;100376.97;5082490;28;20027;-73
2022/04/23 06:25:06;;;;;;;39.20;30.00;;;;;;;9.76;87.36;100377.66;5085077;28;20023;-73
2022/04/23 06:27:31;;;;;;;38.20;29.17;;;;;;;9.83;86.49;100385.25;5080814;28;20446;-73
2022/04/23 06:29:57;;;;;;;39.78;30.13;;;;;;;9.89;86.50;100385.97;5092692;28;20039;-73
2022/04/23 06:32:23;;;;;;;38.30;29.25;;;;;;;9.94;86.08;100382.38;5077906;28;20024;-73
2022/04/23 06:34:49;;;;;;;41.05;31.08;;;;;;;9.98;86.03;100381.38;5075885;28;20036;-73
2022/04/23 06:37:17;;;;;;;41.08;30.17;;;;;;;10.03;86.45;100379.47;5076784;28;20031;-73
2022/04/23 06:39:42;;;;;;;42.10;31.00;;;;;;;10.08;85.61;100376.75;5082427;28;20024;-73
2022/04/23 06:42:07;;;;;;;41.28;30.58;;;;;;;10.14;85.45;100381.78;5091495;28;20062;-73
2022/04/23 06:44:33;;;;;;;42.50;30.30;;;;;;;10.21;85.49;100380.72;5087539;28;20063;-73
2022/04/23 06:46:58;;;;;;;41.28;30.55;;;;;;;10.28;84.92;100374.44;5088520;28;20461;-73
2022/04/23 06:49:26;;;;;;;40.35;28.15;;;;;;;10.32;84.68;100380.41;5080260;28;20030;-73
2022/04/23 06:51:51;;;;;;;37.28;29.08;;;;;;;10.44;84.12;100381.81;5086531;28;20044;-73
2022/04/23 06:54:16;;;;;;;38.88;30.42;;;;;;;10.49;83.66;100362.50;5090336;28;20051;-73
2022/04/23 06:56:41;;;;;;;39.00;29.92;;;;;;;10.57;83.37;100367.50;5080543;28;20025;-73
2022/04/23 06:59:07;;;;;;;40.97;30.15;;;;;;;10.65;83.51;100364.66;5080177;28;20032;-73
2022/04/23 07:01:32;;;;;;;41.13;30.05;;;;;;;10.76;83.66;100363.41;5081110;28;20024;-73
2022/04/23 07:03:57;;;;;;;37.95;29.63;;;;;;;10.85;83.40;100361.41;5086660;28;20119;-73
2022/04/23 07:06:22;;;;;;;39.15;29.83;;;;;;;10.96;81.54;100365.38;5087457;28;20044;-73
2022/04/23 07:08:48;;;;;;;40.15;29.83;;;;;;;10.97;81.34;100364.47;5086514;28;20467;-73
2022/04/23 07:11:13;;;;;;;35.17;28.15;;;;;;;11.04;81.30;100356.44;5083548;28;20032;-75
2022/04/23 07:13:38;;;;;;;40.05;28.13;;;;;;;11.14;80.74;100352.63;5071442;28;20046;-73
2022/04/23 07:16:05;;;;;;;36.83;28.33;;;;;;;11.18;79.69;100352.50;5078122;28;20036;-74
2022/04/23 07:18:31;;;;;;;34.08;27.73;;;;;;;11.27;79.20;100356.53;5079743;28;20529;-72
2022/04/23 07:20:56;;;;;;;36.42;28.58;;;;;;;11.25;78.78;100340.09;5087246;28;20056;-73
2022/04/23 07:26:06;;;;;;;36.40;28.83;;;;;;;11.48;78.20;100347.97;5090987;28;20143;-73
2022/04/23 07:28:32;;;;;;;37.47;29.10;;;;;;;11.59;78.63;100346.75;5076864;28;20024;-73
2022/04/23 07:30:57;;;;;;;35.78;27.98;;;;;;;11.66;78.29;100345.59;5071018;28;20392;-72
2022/04/23 07:38:52;;;;;;;36.40;26.70;;;;;;;11.91;76.43;100338.63;5070889;28;20472;-73
2022/04/23 07:41:18;;;;;;;33.85;26.83;;;;;;;12.02;76.56;100348.66;5071487;28;20021;-73
2022/04/23 07:43:43;;;;;;;31.92;25.20;;;;;;;12.09;75.21;100331.00;5071425;28;20098;-72
2022/04/23 07:46:09;;;;;;;34.40;26.42;;;;;;;12.20;74.24;100336.69;5070648;28;20067;-73
2022/04/23 07:48:34;;;;;;;34.78;26.00;;;;;;;12.24;73.70;100325.19;5071328;28;20024;-73
2022/04/23 07:50:59;;;;;;;32.00;25.25;;;;;;;12.33;73.22;100339.69;5071245;28;20131;-73
2022/04/23 07:53:24;;;;;;;31.50;25.00;;;;;;;12.39;73.22;100328.97;5070676;28;20036;-72
2022/04/23 07:55:50;;;;;;;29.35;24.10;;;;;;;12.52;72.80;100340.63;5071328;28;20508;-72
2022/04/23 07:58:15;;;;;;;29.30;23.38;;;;;;;12.53;71.45;100315.38;5071305;28;20105;-73
2022/04/23 08:00:43;;;;;;;30.73;24.20;;;;;;;12.68;71.63;100335.66;5069835;28;20380;-72
2022/04/23 08:03:09;;;;;;;28.48;23.48;;;;;;;12.79;71.15;100338.72;5077777;28;20119;-73
2022/04/23 08:05:34;;;;;;;34.15;24.13;;;;;;;12.86;70.72;100328.84;5073888;28;20456;-72
2022/04/23 08:08:00;;;;;;;29.42;23.48;;;;;;;12.93;69.57;100337.28;5075146;28;20021;-72
2022/04/23 08:10:26;;;;;;;34.03;21.85;;;;;;;12.99;68.78;100316.94;5085649;28;20472;-72
2022/04/23 08:12:52;;;;;;;31.23;23.70;;;;;;;13.06;70.25;100328.84;5091687;28;20024;-72
2022/04/23 08:15:17;;;;;;;33.00;24.40;;;;;;;13.14;69.00;100320.69;5093562;28;20032;-72
2022/04/23 08:17:43;;;;;;;29.42;23.38;;;;;;;13.25;68.72;100315.03;5095061;28;20074;-73
2022/04/23 08:20:09;;;;;;;29.13;23.67;;;;;;;13.33;67.41;100313.78;5094053;28;20034;-72
2022/04/23 08:22:35;;;;;;;29.63;23.20;;;;;;;13.35;67.76;100311.94;5077103;28;20024;-73
2022/04/23 08:25:01;;;;;;;30.90;23.38;;;;;;;13.43;67.83;100321.22;5075645;28;20027;-73
2022/04/23 08:27:26;;;;;;;29.75;23.52;;;;;;;13.51;66.40;100311.28;5094354;28;20032;-72
2022/04/23 08:32:55;;;;;;;27.50;22.92;;;;;;;13.75;64.91;100309.34;5009512;28;20169;-73
2022/04/23 08:35:21;;;;;;;28.98;24.00;;;;;;;13.79;65.36;100305.66;5011805;28;20117;-73
2022/04/23 08:37:46;;;;;;;28.42;23.10;;;;;;;13.95;65.98;100309.28;5040729;28;20048;-73
2022/04/23 08:40:12;;;;;;;31.70;23.98;;;;;;;14.10;65.04;100318.22;5074432;28;20473;-73
2022/04/23 08:42:39;;;;;;;29.02;23.65;;;;;;;14.11;63.90;100303.34;5082883;28;20479;-73
2022/04/23 08:45:07;;;;;;;31.20;22.40;;;;;;;14.25;64.42;100306.16;5094348;28;20024;-73
2022/04/23 08:47:36;;;;;;;32.60;25.15;;;;;;;14.48;64.57;100308.53;5094571;28;20066;-73
2022/04/23 08:50:05;;;;;;;30.38;23.98;;;;;;;14.59;63.38;100321.16;5087542;28;20024;-73
2022/04/23 08:52:32;;;;;;;30.65;24.90;;;;;;;14.58;61.87;100318.59;5102857;28;20491;-73
2022/04/23 08:54:59;;;;;;;31.65;25.35;;;;;;;14.61;62.79;100319.31;5087978;28;20555;-73
2022/04/23 08:57:24;;;;;;;29.92;23.85;;;;;;;14.59;61.55;100318.56;5105545;28;20040;-73
2022/04/23 08:59:53;;;;;;;33.72;25.40;;;;;;;14.61;61.13;100319.31;5114399;28;20028;-73
2022/04/23 09:02:18;;;;;;;32.30;25.30;;;;;;;14.68;61.04;100319.84;5114032;28;20028;-73
2022/04/23 09:04:44;;;;;;;33.88;25.00;;;;;;;14.65;61.96;100312.13;5114693;28;20028;-73
2022/04/23 09:07:27;;;;;;;32.35;23.92;;;;;;;14.78;63.38;100315.00;5114479;28;20551;-77
2022/04/23 09:09:57;;;;;;;38.67;24.38;;;;;;;15.18;61.60;100319.97;5094980;28;20475;-77
2022/04/23 09:12:24;;;;;;;31.13;24.23;;;;;;;15.55;59.84;100317.22;5079780;28;20066;-81
2022/04/23 09:14:51;;;;;;;30.58;24.77;;;;;;;15.88;58.81;100320.72;5092817;28;20150;-81
2022/04/23 09:25:42;;;;;;;32.20;25.17;;;;;;;16.40;55.67;100324.91;5081096;28;20283;-75
2022/04/23 09:28:17;;;;;;;32.78;25.27;;;;;;;16.62;57.50;100320.16;5090908;28;20051;-75
2022/04/23 09:30:44;;;;;;;32.88;26.80;;;;;;;16.88;56.50;100325.75;5091707;28;20343;-76
2022/04/23 09:33:10;;;;;;;29.85;26.35;;;;;;;17.02;54.96;100320.50;5093405;28;20024;-77
2022/04/23 09:35:35;;;;;;;34.25;27.10;;;;;;;17.10;54.30;100322.69;5087145;28;20025;-77
2022/04/23 09:38:18;;;;;;;34.58;28.23;;;;;;;17.20;55.78;100315.09;5086041;28;20024;-76
2022/04/23 09:40:54;;;;;;;32.87;27.00;;;;;;;17.35;54.10;100322.06;5090017;28;20036;-76
2022/04/23 09:43:25;;;;;;;34.22;26.30;;;;;;;17.52;53.56;100323.69;5093385;28;20265;-76
2022/04/23 09:46:01;;;;;;;31.60;25.85;;;;;;;17.78;54.53;100322.13;5092775;28;20036;-76
2022/04/23 09:48:26;;;;;;;30.92;26.83;;;;;;;17.77;52.84;100313.38;5093816;28;20028;-76
2022/04/23 09:50:51;;;;;;;33.58;27.23;;;;;;;17.78;52.75;100312.44;5093114;28;20047;-76
2022/04/23 09:53:20;;;;;;;37.35;29.15;;;;;;;17.52;53.97;100311.34;5092509;28;20021;-76
2022/04/23 09:55:48;;;;;;;34.50;27.38;;;;;;;17.31;52.29;100313.50;5093177;28;20117;-76
2022/04/23 09:58:14;;;;;;;32.05;26.75;;;;;;;17.12;53.40;100315.53;5092504;28;20047;-76
2022/04/23 10:00:41;;;;;;;32.08;27.48;;;;;;;16.94;53.17;100312.22;5093211;28;20467;-76
2022/04/23 10:03:08;;;;;;;33.00;27.55;;;;;;;16.78;53.19;100306.16;5087907;28;20024;-76
2022/04/23 10:05:42;;;;;;;32.88;28.98;;;;;;;16.48;54.42;100316.59;5071506;28;20032;-76
2022/04/23 10:08:12;;;;;;;30.70;26.30;;;;;;;16.43;55.67;100310.75;5083243;28;20024;-76
2022/04/23 10:11:11;;;;;;;35.75;28.58;;;;;;;16.48;55.45;100306.94;5113406;28;20038;-77
2022/04/23 10:13:40;;;;;;;32.95;26.65;;;;;;;16.74;55.30;100288.78;5090004;28;20399;-77
2022/04/23 10:16:07;;;;;;;31.40;28.00;;;;;;;16.96;54.54;100302.44;5093048;28;20051;-76
2022/04/23 10:18:38;;;;;;;31.00;26.23;;;;;;;17.11;53.50;100287.53;5091662;28;20427;-77
2022/04/23 10:21:08;;;;;;;29.55;26.30;;;;;;;17.24;54.46;100293.75;5091841;28;20051;-77
2022/04/23 10:24:16;;;;;;;31.40;25.75;;;;;;;17.31;53.07;100284.53;5092847;28;20027;-77
2022/04/23 10:26:54;;;;;;;32.38;25.25;;;;;;;17.37;52.38;100277.22;5058762;28;20041;-77
2022/04/23 10:29:22;;;;;;;31.10;24.33;;;;;;;17.51;52.58;100293.88;5096592;28;20036;-77
2022/04/23 10:32:22;;;;;;;37.60;26.00;;;;;;;17.45;52.69;100293.38;5087684;28;20081;-77
2022/04/23 10:34:48;;;;;;;31.02;25.60;;;;;;;17.18;52.44;100295.91;5073950;28;20024;-76
2022/04/23 10:37:24;;;;;;;33.25;27.17;;;;;;;17.08;53.07;100304.34;5074959;28;20127;-77
2022/04/23 10:39:52;;;;;;;36.08;29.35;;;;;;;17.19;52.86;100289.69;5074977;28;20081;-75
2022/04/23 10:42:22;;;;;;;29.40;25.60;;;;;;;17.53;52.42;100297.25;5090231;28;20046;-76
2022/04/23 10:44:49;;;;;;;33.15;25.85;;;;;;;17.86;51.75;100277.69;5086626;28;20024;-76
2022/04/23 10:47:32;;;;;;;34.13;26.20;;;;;;;18.16;51.27;100295.16;5090824;28;20032;-77
2022/04/23 10:50:20;;;;;;;33.65;27.88;;;;;;;18.18;50.74;100287.97;5090250;28;20502;-77
2022/04/23 10:52:46;;;;;;;31.98;27.85;;;;;;;17.90;49.53;100273.91;5059228;28;20094;-77
2022/04/23 10:55:13;;;;;;;34.38;27.38;;;;;;;17.67;50.72;100279.75;5090951;28;20067;-77
2022/04/23 10:57:39;;;;;;;33.15;27.95;;;;;;;17.64;52.11;100277.31;5092168;28;20035;-77
2022/04/23 11:00:12;;;;;;;37.35;28.27;;;;;;;17.94;52.22;100283.31;5085761;28;20103;-77
2022/04/23 11:02:39;;;;;;;30.83;27.23;;;;;;;18.22;51.32;100271.03;5070947;28;20028;-76
2022/04/23 11:13:50;;;;;;;32.72;26.52;;;;;;;19.47;46.21;100269.72;5091755;28;20062;-77
2022/04/23 11:16:17;;;;;;;31.48;26.27;;;;;;;19.66;46.47;100279.06;5082197;28;20452;-78
2022/04/23 11:18:44;;;;;;;34.22;27.13;;;;;;;19.78;45.96;100276.41;5071296;28;20464;-78
2022/04/23 11:21:13;;;;;;;32.55;26.88;;;;;;;19.83;46.89;100261.03;5079883;28;20080;-78
2022/04/23 11:23:42;;;;;;;29.48;25.70;;;;;;;20.18;44.82;100257.66;5089680;28;20057;-77
2022/04/23 11:26:11;;;;;;;29.08;23.73;;;;;;;20.63;45.26;100257.03;5091510;28;20521;-77
2022/04/23 11:28:37;;;;;;;27.23;24.33;;;;;;;21.08;43.68;100258.00;5091740;28;20036;-78
2022/04/23 11:31:13;;;;;;;31.45;24.75;;;;;;;21.36;43.28;100255.94;5087395;28;20036;-78
2022/04/23 11:33:52;;;;;;;35.08;25.40;;;;;;;21.56;43.67;100254.38;5091546;28;20024;-78
2022/04/23 11:36:18;;;;;;;33.30;23.42;;;;;;;21.93;42.19;100254.94;5092591;28;20024;-78
2022/04/23 11:38:44;;;;;;;26.40;23.42;;;;;;;22.17;41.96;100252.13;5094357;28;20032;-78
2022/04/23 11:41:10;;;;;;;29.15;23.67;;;;;;;22.28;39.64;100264.53;5078740;28;20494;-77
2022/04/23 11:43:37;;;;;;;29.73;24.50;;;;;;;21.93;40.85;100255.75;5079544;28;20032;-75
2022/04/23 11:46:07;;;;;;;28.15;23.85;;;;;;;21.68;40.90;100251.59;5076869;28;20024;-75
2022/04/23 11:48:44;;;;;;;27.55;23.45;;;;;;;21.55;42.23;100256.19;5095305;28;20020;-75